sensor_id;sensor_type;location;lat;lon;timestamp;pressure;altitude;pressure_sealevel;temperature;humidity
5651;BME280;40241;52.684;9.758;2023-03-04T00:01:13;101975.34;;;7.57;60.43
5651;BME280;40241;52.684;9.758;2023-03-04T00:03:38;101968.97;;;7.61;60.54
5651;BME280;40241;52.684;9.758;2023-03-04T00:06:04;101966.16;;;7.64;60.44
5651;BME280;40241;52.684;9.758;2023-03-04T00:08:29;101968.78;;;7.68;60.51
5651;BME280;40241;52.684;9.758;2023-03-04T00:10:55;101963.16;;;7.71;60.56
5651;BME280;40241;52.684;9.758;2023-03-04T00:13:20;101961.97;;;7.72;60.29
5651;BME280;40241;52.684;9.758;2023-03-04T00:15:47;101963.06;;;7.75;60.33
5651;BME280;40241;52.684;9.758;2023-03-04T00:18:12;101961.19;;;7.72;60.54
5651;BME280;40241;52.684;9.758;2023-03-04T00:20:38;101959.09;;;7.76;60.56
5651;BME280;40241;52.684;9.758;2023-03-04T00:23:03;101964.16;;;7.77;60.60
5651;BME280;40241;52.684;9.758;2023-03-04T00:25:28;101966.44;;;7.79;60.53
5651;BME280;40241;52.684;9.758;2023-03-04T00:27:53;101961.16;;;7.84;60.45
5651;BME280;40241;52.684;9.758;2023-03-04T00:30:19;101958.78;;;7.86;60.29
5651;BME280;40241;52.684;9.758;2023-03-04T00:32:44;101956.38;;;7.88;60.51
5651;BME280;40241;52.684;9.758;2023-03-04T00:35:09;101956.69;;;7.90;60.11
5651;BME280;40241;52.684;9.758;2023-03-04T00:37:35;101946.81;;;7.93;60.57
5651;BME280;40241;52.684;9.758;2023-03-04T00:40:00;101942.09;;;7.93;60.22
5651;BME280;40241;52.684;9.758;2023-03-04T00:42:25;101955.78;;;7.93;60.22
5651;BME280;40241;52.684;9.758;2023-03-04T00:44:51;101943.31;;;7.92;60.57
5651;BME280;40241;52.684;9.758;2023-03-04T00:47:16;101943.94;;;7.96;60.39
5651;BME280;40241;52.684;9.758;2023-03-04T00:49:41;101943.81;;;8.00;60.37
5651;BME280;40241;52.684;9.758;2023-03-04T00:52:07;101944.16;;;8.02;60.36
5651;BME280;40241;52.684;9.758;2023-03-04T00:54:32;101947.97;;;8.04;60.31
5651;BME280;40241;52.684;9.758;2023-03-04T00:56:57;101939.34;;;8.06;60.28
5651;BME280;40241;52.684;9.758;2023-03-04T00:59:23;101947.09;;;8.07;60.37
5651;BME280;40241;52.684;9.758;2023-03-04T01:01:48;101942.06;;;8.06;60.32
5651;BME280;40241;52.684;9.758;2023-03-04T01:04:13;101939.19;;;8.09;60.32
5651;BME280;40241;52.684;9.758;2023-03-04T01:06:39;101948.84;;;8.14;60.34
5651;BME280;40241;52.684;9.758;2023-03-04T01:09:04;101944.44;;;8.16;60.16
5651;BME280;40241;52.684;9.758;2023-03-04T01:11:29;101938.84;;;8.20;60.19
5651;BME280;40241;52.684;9.758;2023-03-04T01:13:55;101935.63;;;8.21;60.31
5651;BME280;40241;52.684;9.758;2023-03-04T01:16:20;101920.41;;;8.20;60.09
5651;BME280;40241;52.684;9.758;2023-03-04T01:18:46;101921.94;;;8.21;60.47
5651;BME280;40241;52.684;9.758;2023-03-04T01:21:12;101927.09;;;8.19;60.02
5651;BME280;40241;52.684;9.758;2023-03-04T01:23:37;101920.88;;;8.19;60.12
5651;BME280;40241;52.684;9.758;2023-03-04T01:26:02;101908.69;;;8.20;60.37
5651;BME280;40241;52.684;9.758;2023-03-04T01:28:28;101916.91;;;8.20;60.51
5651;BME280;40241;52.684;9.758;2023-03-04T01:30:53;101910.22;;;8.21;60.37
5651;BME280;40241;52.684;9.758;2023-03-04T01:33:19;101907.03;;;8.22;60.26
5651;BME280;40241;52.684;9.758;2023-03-04T01:35:44;101899.91;;;8.25;60.14
5651;BME280;40241;52.684;9.758;2023-03-04T01:38:09;101894.84;;;8.23;60.36
5651;BME280;40241;52.684;9.758;2023-03-04T01:40:36;101894.09;;;8.23;60.39
5651;BME280;40241;52.684;9.758;2023-03-04T01:43:01;101881.59;;;8.22;60.62
5651;BME280;40241;52.684;9.758;2023-03-04T01:45:27;101888.28;;;8.21;60.66
5651;BME280;40241;52.684;9.758;2023-03-04T01:47:53;101879.63;;;8.22;60.76
5651;BME280;40241;52.684;9.758;2023-03-04T01:52:44;101897.25;;;8.21;60.65
5651;BME280;40241;52.684;9.758;2023-03-04T01:55:20;101881.50;;;8.25;60.77
5651;BME280;40241;52.684;9.758;2023-03-04T01:57:48;101881.13;;;8.23;60.67
5651;BME280;40241;52.684;9.758;2023-03-04T02:00:16;101868.19;;;8.24;60.62
5651;BME280;40241;52.684;9.758;2023-03-04T02:02:44;101873.59;;;8.27;60.61
5651;BME280;40241;52.684;9.758;2023-03-04T02:05:09;101868.84;;;8.28;60.72
5651;BME280;40241;52.684;9.758;2023-03-04T02:07:35;101866.13;;;8.28;60.53
5651;BME280;40241;52.684;9.758;2023-03-04T02:10:00;101864.91;;;8.29;60.57
5651;BME280;40241;52.684;9.758;2023-03-04T02:12:26;101862.81;;;8.33;60.53
5651;BME280;40241;52.684;9.758;2023-03-04T02:14:51;101854.91;;;8.35;60.46
5651;BME280;40241;52.684;9.758;2023-03-04T02:17:16;101859.19;;;8.36;60.40
5651;BME280;40241;52.684;9.758;2023-03-04T02:20:09;101856.88;;;8.35;60.59
5651;BME280;40241;52.684;9.758;2023-03-04T02:22:39;101854.91;;;8.35;60.31
5651;BME280;40241;52.684;9.758;2023-03-04T02:25:10;101844.06;;;8.32;60.60
5651;BME280;40241;52.684;9.758;2023-03-04T02:27:37;101853.94;;;8.29;60.61
5651;BME280;40241;52.684;9.758;2023-03-04T02:30:02;101838.13;;;8.33;60.60
5651;BME280;40241;52.684;9.758;2023-03-04T02:32:28;101837.81;;;8.31;60.71
5651;BME280;40241;52.684;9.758;2023-03-04T02:34:54;101839.78;;;8.30;60.87
5651;BME280;40241;52.684;9.758;2023-03-04T02:37:20;101841.66;;;8.34;60.91
5651;BME280;40241;52.684;9.758;2023-03-04T02:39:47;101838.91;;;8.34;60.67
5651;BME280;40241;52.684;9.758;2023-03-04T02:42:14;101837.69;;;8.35;60.83
5651;BME280;40241;52.684;9.758;2023-03-04T02:44:41;101834.94;;;8.35;60.74
5651;BME280;40241;52.684;9.758;2023-03-04T02:47:11;101841.97;;;8.36;60.83
5651;BME280;40241;52.684;9.758;2023-03-04T02:49:39;101834.50;;;8.36;60.82
5651;BME280;40241;52.684;9.758;2023-03-04T02:52:12;101829.44;;;8.35;60.93
5651;BME280;40241;52.684;9.758;2023-03-04T02:54:38;101830.22;;;8.35;60.83
5651;BME280;40241;52.684;9.758;2023-03-04T02:57:06;101836.47;;;8.36;60.90
5651;BME280;40241;52.684;9.758;2023-03-04T02:59:32;101837.25;;;8.36;60.71
5651;BME280;40241;52.684;9.758;2023-03-04T03:01:57;101834.50;;;8.36;60.74
5651;BME280;40241;52.684;9.758;2023-03-04T03:04:23;101835.59;;;8.39;61.02
5651;BME280;40241;52.684;9.758;2023-03-04T03:06:49;101828.41;;;8.41;60.71
5651;BME280;40241;52.684;9.758;2023-03-04T03:09:15;101830.75;;;8.43;60.75
5651;BME280;40241;52.684;9.758;2023-03-04T03:11:41;101832.69;;;8.42;61.10
5651;BME280;40241;52.684;9.758;2023-03-04T03:14:06;101829.19;;;8.42;61.01
5651;BME280;40241;52.684;9.758;2023-03-04T03:16:32;101835.44;;;8.42;60.97
5651;BME280;40241;52.684;9.758;2023-03-04T03:18:58;101828.09;;;8.39;61.21
5651;BME280;40241;52.684;9.758;2023-03-04T03:21:23;101823.84;;;8.38;60.91
5651;BME280;40241;52.684;9.758;2023-03-04T03:23:48;101823.41;;;8.40;61.14
5651;BME280;40241;52.684;9.758;2023-03-04T03:26:14;101819.88;;;8.39;60.88
5651;BME280;40241;52.684;9.758;2023-03-04T03:28:40;101823.09;;;8.38;61.00
5651;BME280;40241;52.684;9.758;2023-03-04T03:31:05;101824.63;;;8.39;61.13
5651;BME280;40241;52.684;9.758;2023-03-04T03:33:31;101821.44;;;8.40;60.99
5651;BME280;40241;52.684;9.758;2023-03-04T03:35:56;101821.88;;;8.39;60.96
5651;BME280;40241;52.684;9.758;2023-03-04T03:38:22;101818.38;;;8.38;61.10
5651;BME280;40241;52.684;9.758;2023-03-04T03:40:47;101817.59;;;8.38;61.26
5651;BME280;40241;52.684;9.758;2023-03-04T03:43:12;101817.13;;;8.39;61.38
5651;BME280;40241;52.684;9.758;2023-03-04T03:45:38;101811.66;;;8.39;61.19
5651;BME280;40241;52.684;9.758;2023-03-04T03:48:03;101812.56;;;8.36;61.65
5651;BME280;40241;52.684;9.758;2023-03-04T03:50:29;101810.56;;;8.37;61.46
5651;BME280;40241;52.684;9.758;2023-03-04T03:52:54;101807.41;;;8.38;61.42
5651;BME280;40241;52.684;9.758;2023-03-04T03:55:20;101798.84;;;8.36;61.66
5651;BME280;40241;52.684;9.758;2023-03-04T03:57:46;101794.25;;;8.33;61.47
5651;BME280;40241;52.684;9.758;2023-03-04T04:00:12;101792.88;;;8.28;61.56
5651;BME280;40241;52.684;9.758;2023-03-04T04:02:38;101801.53;;;8.27;61.89
5651;BME280;40241;52.684;9.758;2023-03-04T04:05:03;101790.59;;;8.27;61.97
5651;BME280;40241;52.684;9.758;2023-03-04T04:07:29;101788.28;;;8.25;61.87
5651;BME280;40241;52.684;9.758;2023-03-04T04:09:54;101784.75;;;8.25;61.74
5651;BME280;40241;52.684;9.758;2023-03-04T04:12:19;101789.03;;;8.26;61.76
5651;BME280;40241;52.684;9.758;2023-03-04T04:14:45;101783.88;;;8.28;61.91
5651;BME280;40241;52.684;9.758;2023-03-04T04:17:11;101778.06;;;8.26;61.97
5651;BME280;40241;52.684;9.758;2023-03-04T04:19:38;101791.13;;;8.22;62.04
5651;BME280;40241;52.684;9.758;2023-03-04T04:22:05;101784.75;;;8.25;62.17
5651;BME280;40241;52.684;9.758;2023-03-04T04:24:31;101782.00;;;8.25;62.02
5651;BME280;40241;52.684;9.758;2023-03-04T04:26:57;101785.94;;;8.24;61.96
5651;BME280;40241;52.684;9.758;2023-03-04T04:29:22;101780.06;;;8.25;61.98
5651;BME280;40241;52.684;9.758;2023-03-04T04:31:48;101777.31;;;8.25;62.01
5651;BME280;40241;52.684;9.758;2023-03-04T04:34:13;101772.25;;;8.24;62.06
5651;BME280;40241;52.684;9.758;2023-03-04T04:36:38;101784.75;;;8.25;61.98
5651;BME280;40241;52.684;9.758;2023-03-04T04:39:04;101778.06;;;8.26;61.91
5651;BME280;40241;52.684;9.758;2023-03-04T04:41:38;101777.31;;;8.25;62.12
5651;BME280;40241;52.684;9.758;2023-03-04T04:44:04;101773.47;;;8.23;61.99
5651;BME280;40241;52.684;9.758;2023-03-04T04:46:30;101775.00;;;8.24;62.19
5651;BME280;40241;52.684;9.758;2023-03-04T04:48:55;101765.91;;;8.27;62.28
5651;BME280;40241;52.684;9.758;2023-03-04T04:51:21;101765.56;;;8.25;62.06
5651;BME280;40241;52.684;9.758;2023-03-04T04:53:47;101764.03;;;8.24;62.30
5651;BME280;40241;52.684;9.758;2023-03-04T04:56:19;101763.25;;;8.23;62.36
5651;BME280;40241;52.684;9.758;2023-03-04T04:58:46;101757.03;;;8.23;62.14
5651;BME280;40241;52.684;9.758;2023-03-04T05:01:12;101759.44;;;8.21;62.24
5651;BME280;40241;52.684;9.758;2023-03-04T05:03:38;101762.63;;;8.19;62.38
5651;BME280;40241;52.684;9.758;2023-03-04T05:06:05;101761.88;;;8.19;62.45
5651;BME280;40241;52.684;9.758;2023-03-04T05:08:31;101755.63;;;8.18;62.80
5651;BME280;40241;52.684;9.758;2023-03-04T05:10:56;101753.66;;;8.19;62.53
5651;BME280;40241;52.684;9.758;2023-03-04T05:13:22;101746.31;;;8.16;62.71
5651;BME280;40241;52.684;9.758;2023-03-04T05:15:50;101752.38;;;8.11;62.82
5651;BME280;40241;52.684;9.758;2023-03-04T05:18:16;101750.41;;;8.11;62.81
5651;BME280;40241;52.684;9.758;2023-03-04T05:20:41;101753.59;;;8.10;62.74
5651;BME280;40241;52.684;9.758;2023-03-04T05:23:06;101751.28;;;8.08;62.95
5651;BME280;40241;52.684;9.758;2023-03-04T05:25:31;101757.53;;;8.09;62.71
5651;BME280;40241;52.684;9.758;2023-03-04T05:27:57;101761.06;;;8.09;62.98
5651;BME280;40241;52.684;9.758;2023-03-04T05:30:22;101770.03;;;8.10;63.05
5651;BME280;40241;52.684;9.758;2023-03-04T05:32:47;101763.94;;;8.06;63.16
5651;BME280;40241;52.684;9.758;2023-03-04T05:35:13;101766.69;;;8.06;63.12
5651;BME280;40241;52.684;9.758;2023-03-04T05:37:38;101758.78;;;8.08;63.29
5651;BME280;40241;52.684;9.758;2023-03-04T05:40:04;101761.06;;;8.09;62.94
5651;BME280;40241;52.684;9.758;2023-03-04T05:42:30;101767.72;;;8.08;63.11
5651;BME280;40241;52.684;9.758;2023-03-04T05:44:55;101768.19;;;8.07;63.12
5651;BME280;40241;52.684;9.758;2023-03-04T05:47:20;101754.94;;;8.05;63.42
5651;BME280;40241;52.684;9.758;2023-03-04T05:49:46;101762.84;;;8.03;63.07
5651;BME280;40241;52.684;9.758;2023-03-04T05:52:11;101757.78;;;8.02;63.34
5651;BME280;40241;52.684;9.758;2023-03-04T05:54:37;101762.06;;;8.03;63.18
5651;BME280;40241;52.684;9.758;2023-03-04T05:57:02;101756.59;;;8.03;63.26
5651;BME280;40241;52.684;9.758;2023-03-04T05:59:27;101749.16;;;8.03;63.36
5651;BME280;40241;52.684;9.758;2023-03-04T06:01:53;101750.81;;;8.01;63.51
5651;BME280;40241;52.684;9.758;2023-03-04T06:04:18;101756.13;;;8.04;63.38
5651;BME280;40241;52.684;9.758;2023-03-04T06:06:43;101755.72;;;8.06;63.53
5651;BME280;40241;52.684;9.758;2023-03-04T06:09:12;101747.50;;;8.06;63.33
5651;BME280;40241;52.684;9.758;2023-03-04T06:11:37;101749.00;;;8.07;63.50
5651;BME280;40241;52.684;9.758;2023-03-04T06:14:03;101752.63;;;8.04;63.53
5651;BME280;40241;52.684;9.758;2023-03-04T06:16:28;101753.84;;;8.03;63.65
5651;BME280;40241;52.684;9.758;2023-03-04T06:18:54;101753.84;;;8.03;63.68
5651;BME280;40241;52.684;9.758;2023-03-04T06:21:19;101748.38;;;8.03;63.76
5651;BME280;40241;52.684;9.758;2023-03-04T06:23:44;101754.75;;;8.00;63.85
5651;BME280;40241;52.684;9.758;2023-03-04T06:26:11;101753.22;;;7.99;63.82
5651;BME280;40241;52.684;9.758;2023-03-04T06:28:40;101746.97;;;7.98;63.98
5651;BME280;40241;52.684;9.758;2023-03-04T06:31:06;101749.25;;;8.00;63.90
5651;BME280;40241;52.684;9.758;2023-03-04T06:33:31;101744.56;;;8.00;63.97
5651;BME280;40241;52.684;9.758;2023-03-04T06:35:56;101747.75;;;7.99;64.04
5651;BME280;40241;52.684;9.758;2023-03-04T06:38:23;101749.25;;;8.00;64.14
5651;BME280;40241;52.684;9.758;2023-03-04T06:40:49;101748.84;;;8.01;64.21
5651;BME280;40241;52.684;9.758;2023-03-04T06:43:14;101749.56;;;8.02;64.14
5651;BME280;40241;52.684;9.758;2023-03-04T06:45:39;101742.44;;;8.04;64.08
5651;BME280;40241;52.684;9.758;2023-03-04T06:48:05;101755.72;;;8.06;63.94
5651;BME280;40241;52.684;9.758;2023-03-04T06:50:30;101748.22;;;8.06;64.07
5651;BME280;40241;52.684;9.758;2023-03-04T06:52:56;101754.03;;;8.08;64.00
5651;BME280;40241;52.684;9.758;2023-03-04T06:55:21;101746.56;;;8.09;64.09
5651;BME280;40241;52.684;9.758;2023-03-04T06:57:47;101743.84;;;8.09;63.96
5651;BME280;40241;52.684;9.758;2023-03-04T07:00:13;101754.69;;;8.12;64.17
5651;BME280;40241;52.684;9.758;2023-03-04T07:02:38;101749.06;;;8.16;64.32
5651;BME280;40241;52.684;9.758;2023-03-04T07:05:04;101751.81;;;8.16;64.37
5651;BME280;40241;52.684;9.758;2023-03-04T07:07:29;101746.78;;;8.14;64.30
5651;BME280;40241;52.684;9.758;2023-03-04T07:09:55;101748.28;;;8.15;64.15
5651;BME280;40241;52.684;9.758;2023-03-04T07:12:20;101749.38;;;8.18;64.17
5651;BME280;40241;52.684;9.758;2023-03-04T07:14:45;101743.91;;;8.18;64.21
5651;BME280;40241;52.684;9.758;2023-03-04T07:17:11;101742.22;;;8.20;64.22
5651;BME280;40241;52.684;9.758;2023-03-04T07:19:36;101742.03;;;8.15;64.48
5651;BME280;40241;52.684;9.758;2023-03-04T07:22:02;101746.94;;;8.20;64.44
5651;BME280;40241;52.684;9.758;2023-03-04T07:24:27;101759.00;;;8.22;64.91
5651;BME280;40241;52.684;9.758;2023-03-04T07:26:53;101749.22;;;8.21;64.61
5651;BME280;40241;52.684;9.758;2023-03-04T07:29:18;101750.56;;;8.17;64.90
5651;BME280;40241;52.684;9.758;2023-03-04T07:31:43;101755.94;;;8.20;64.83
5651;BME280;40241;52.684;9.758;2023-03-04T07:34:11;101759.31;;;8.24;64.81
5651;BME280;40241;52.684;9.758;2023-03-04T07:36:37;101760.59;;;8.32;64.76
5651;BME280;40241;52.684;9.758;2023-03-04T07:39:03;101761.72;;;8.44;64.55
5651;BME280;40241;52.684;9.758;2023-03-04T07:41:29;101763.75;;;8.53;64.85
5651;BME280;40241;52.684;9.758;2023-03-04T07:43:56;101762.69;;;8.59;64.50
5651;BME280;40241;52.684;9.758;2023-03-04T07:46:22;101774.28;;;8.63;64.77
5651;BME280;40241;52.684;9.758;2023-03-04T07:48:48;101763.63;;;8.65;64.53
5651;BME280;40241;52.684;9.758;2023-03-04T07:51:15;101767.63;;;8.73;64.62
5651;BME280;40241;52.684;9.758;2023-03-04T07:53:44;101772.09;;;8.80;64.58
5651;BME280;40241;52.684;9.758;2023-03-04T07:56:22;101775.75;;;8.86;64.80
5651;BME280;40241;52.684;9.758;2023-03-04T07:58:48;101771.19;;;8.92;64.41
5651;BME280;40241;52.684;9.758;2023-03-04T08:01:37;101778.38;;;8.98;64.51
5651;BME280;40241;52.684;9.758;2023-03-04T08:04:04;101775.63;;;8.98;64.38
5651;BME280;40241;52.684;9.758;2023-03-04T08:06:30;101774.88;;;9.07;64.49
5651;BME280;40241;52.684;9.758;2023-03-04T08:08:58;101773.84;;;9.14;64.08
5651;BME280;40241;52.684;9.758;2023-03-04T08:11:25;101779.50;;;9.19;63.96
5651;BME280;40241;52.684;9.758;2023-03-04T08:13:51;101774.91;;;9.16;64.25
5651;BME280;40241;52.684;9.758;2023-03-04T08:16:20;101770.78;;;9.12;64.13
5651;BME280;40241;52.684;9.758;2023-03-04T08:18:50;101771.72;;;9.09;64.05
5651;BME280;40241;52.684;9.758;2023-03-04T08:21:17;101777.50;;;9.11;64.37
5651;BME280;40241;52.684;9.758;2023-03-04T08:23:44;101775.81;;;9.13;64.29
5651;BME280;40241;52.684;9.758;2023-03-04T08:26:17;101770.78;;;9.12;64.12
5651;BME280;40241;52.684;9.758;2023-03-04T08:28:43;101767.44;;;9.17;64.15
5651;BME280;40241;52.684;9.758;2023-03-04T08:31:11;101762.41;;;9.24;64.11
5651;BME280;40241;52.684;9.758;2023-03-04T08:33:37;101765.03;;;9.28;64.26
5651;BME280;40241;52.684;9.758;2023-03-04T08:36:03;101761.50;;;9.27;64.32
5651;BME280;40241;52.684;9.758;2023-03-04T08:38:29;101752.81;;;9.29;64.25
5651;BME280;40241;52.684;9.758;2023-03-04T08:40:56;101763.19;;;9.34;64.17
5651;BME280;40241;52.684;9.758;2023-03-04T08:43:24;101754.19;;;9.42;64.23
5651;BME280;40241;52.684;9.758;2023-03-04T08:45:51;101764.13;;;9.49;64.11
5651;BME280;40241;52.684;9.758;2023-03-04T08:48:17;101759.53;;;9.55;64.12
5651;BME280;40241;52.684;9.758;2023-03-04T08:50:44;101764.59;;;9.56;64.02
5651;BME280;40241;52.684;9.758;2023-03-04T08:53:10;101756.94;;;9.60;63.90
5651;BME280;40241;52.684;9.758;2023-03-04T08:55:37;101766.25;;;9.63;63.75
5651;BME280;40241;52.684;9.758;2023-03-04T08:58:03;101762.88;;;9.68;63.93
5651;BME280;40241;52.684;9.758;2023-03-04T09:00:28;101762.44;;;9.69;63.76
5651;BME280;40241;52.684;9.758;2023-03-04T09:02:54;101766.25;;;9.72;63.83
5651;BME280;40241;52.684;9.758;2023-03-04T09:05:20;101760.31;;;9.73;63.65
5651;BME280;40241;52.684;9.758;2023-03-04T09:07:45;101769.75;;;9.72;63.41
5651;BME280;40241;52.684;9.758;2023-03-04T09:10:11;101761.81;;;9.65;63.60
5651;BME280;40241;52.684;9.758;2023-03-04T09:12:37;101763.81;;;9.65;63.63
5651;BME280;40241;52.684;9.758;2023-03-04T09:15:03;101763.97;;;9.61;63.51
5651;BME280;40241;52.684;9.758;2023-03-04T09:17:30;101771.28;;;9.55;63.62
5651;BME280;40241;52.684;9.758;2023-03-04T09:19:56;101771.16;;;9.50;63.47
5651;BME280;40241;52.684;9.758;2023-03-04T09:22:21;101770.22;;;9.44;63.67
5651;BME280;40241;52.684;9.758;2023-03-04T09:24:46;101769.91;;;9.42;63.93
5651;BME280;40241;52.684;9.758;2023-03-04T09:27:11;101775.25;;;9.45;64.05
5651;BME280;40241;52.684;9.758;2023-03-04T09:29:37;101773.13;;;9.49;64.03
5651;BME280;40241;52.684;9.758;2023-03-04T09:32:02;101779.22;;;9.53;63.76
5651;BME280;40241;52.684;9.758;2023-03-04T09:34:27;101774.03;;;9.55;63.93
5651;BME280;40241;52.684;9.758;2023-03-04T09:36:53;101775.56;;;9.56;63.81
5651;BME280;40241;52.684;9.758;2023-03-04T09:39:18;101776.31;;;9.57;63.85
5651;BME280;40241;52.684;9.758;2023-03-04T09:41:51;101781.66;;;9.51;63.39
5651;BME280;40241;52.684;9.758;2023-03-04T09:44:25;101790.53;;;9.55;63.44
5651;BME280;40241;52.684;9.758;2023-03-04T09:46:55;101795.41;;;9.60;62.69
5651;BME280;40241;52.684;9.758;2023-03-04T09:49:22;101789.63;;;9.67;63.02
5651;BME280;40241;52.684;9.758;2023-03-04T09:54:59;101802.44;;;9.70;61.34
5651;BME280;40241;52.684;9.758;2023-03-04T10:00:15;101796.78;;;9.56;60.71
5651;BME280;40241;52.684;9.758;2023-03-04T10:05:12;101787.31;;;9.48;61.81
5651;BME280;40241;52.684;9.758;2023-03-04T10:07:40;101791.00;;;9.54;62.07
5651;BME280;40241;52.684;9.758;2023-03-04T10:10:31;101798.63;;;9.50;60.98
5651;BME280;40241;52.684;9.758;2023-03-04T10:12:59;101789.91;;;9.51;62.32
5651;BME280;40241;52.684;9.758;2023-03-04T10:15:51;101797.88;;;9.58;62.14
5651;BME280;40241;52.684;9.758;2023-03-04T10:18:21;101796.19;;;9.52;62.14
5651;BME280;40241;52.684;9.758;2023-03-04T10:20:55;101796.75;;;9.38;62.17
5651;BME280;40241;52.684;9.758;2023-03-04T10:23:25;101798.72;;;9.37;62.75
5651;BME280;40241;52.684;9.758;2023-03-04T10:25:51;101807.00;;;9.46;62.79
5651;BME280;40241;52.684;9.758;2023-03-04T10:28:26;101799.84;;;9.58;62.69
5651;BME280;40241;52.684;9.758;2023-03-04T10:33:20;101792.34;;;9.95;62.95
5651;BME280;40241;52.684;9.758;2023-03-04T10:38:57;101798.00;;;10.00;61.48
5651;BME280;40241;52.684;9.758;2023-03-04T10:41:25;101790.97;;;9.99;61.65
5651;BME280;40241;52.684;9.758;2023-03-04T10:44:11;101792.94;;;10.08;61.00
5651;BME280;40241;52.684;9.758;2023-03-04T10:46:48;101781.66;;;10.24;60.70
5651;BME280;40241;52.684;9.758;2023-03-04T10:49:18;101778.41;;;10.34;60.67
5651;BME280;40241;52.684;9.758;2023-03-04T10:51:47;101780.47;;;10.48;60.64
5651;BME280;40241;52.684;9.758;2023-03-04T10:56:54;101787.47;;;10.68;60.26
5651;BME280;40241;52.684;9.758;2023-03-04T10:59:40;101780.84;;;10.74;59.23
5651;BME280;40241;52.684;9.758;2023-03-04T11:04:56;101778.69;;;10.78;59.78
5651;BME280;40241;52.684;9.758;2023-03-04T11:07:27;101775.47;;;10.80;59.37
5651;BME280;40241;52.684;9.758;2023-03-04T11:09:52;101783.72;;;10.80;59.58
5651;BME280;40241;52.684;9.758;2023-03-04T11:12:20;101771.34;;;10.75;59.15
5651;BME280;40241;52.684;9.758;2023-03-04T11:14:49;101773.66;;;10.77;59.49
5651;BME280;40241;52.684;9.758;2023-03-04T11:17:37;101773.88;;;10.88;58.45
5651;BME280;40241;52.684;9.758;2023-03-04T11:20:23;101777.59;;;10.85;59.15
5651;BME280;40241;52.684;9.758;2023-03-04T11:22:49;101787.59;;;10.64;59.22
5651;BME280;40241;52.684;9.758;2023-03-04T11:25:29;101776.13;;;10.33;58.79
5651;BME280;40241;52.684;9.758;2023-03-04T11:28:00;101790.78;;;10.03;59.13
5651;BME280;40241;52.684;9.758;2023-03-04T11:30:44;101792.50;;;9.64;59.26
5651;BME280;40241;52.684;9.758;2023-03-04T11:38:19;101779.06;;;9.57;60.36
5651;BME280;40241;52.684;9.758;2023-03-04T11:40:51;101773.75;;;9.71;60.12
5651;BME280;40241;52.684;9.758;2023-03-04T11:43:25;101771.72;;;9.90;59.86
5651;BME280;40241;52.684;9.758;2023-03-04T11:54:30;101773.19;;;10.36;57.38
5651;BME280;40241;52.684;9.758;2023-03-04T11:57:04;101753.72;;;10.49;58.95
5651;BME280;40241;52.684;9.758;2023-03-04T12:02:13;101759.00;;;10.71;58.29
5651;BME280;40241;52.684;9.758;2023-03-04T12:05:04;101752.81;;;10.85;58.16
5651;BME280;40241;52.684;9.758;2023-03-04T12:07:47;101745.09;;;10.98;57.98
5651;BME280;40241;52.684;9.758;2023-03-04T12:10:27;101732.78;;;11.08;58.16
5651;BME280;40241;52.684;9.758;2023-03-04T12:29:48;101746.81;;;10.12;58.96
5651;BME280;40241;52.684;9.758;2023-03-04T12:35:18;101732.19;;;9.88;59.92
5651;BME280;40241;52.684;9.758;2023-03-04T12:43:12;101727.00;;;10.49;60.03
5651;BME280;40241;52.684;9.758;2023-03-04T12:45:46;101729.25;;;10.84;59.89
5651;BME280;40241;52.684;9.758;2023-03-04T12:48:30;101733.81;;;11.34;59.06
5651;BME280;40241;52.684;9.758;2023-03-04T12:56:38;101715.56;;;11.22;57.84
5651;BME280;40241;52.684;9.758;2023-03-04T12:59:08;101718.63;;;11.00;57.92
5651;BME280;40241;52.684;9.758;2023-03-04T13:01:42;101732.56;;;10.64;57.47
5651;BME280;40241;52.684;9.758;2023-03-04T13:09:33;101718.06;;;10.31;58.75
5651;BME280;40241;52.684;9.758;2023-03-04T13:12:15;101720.47;;;10.38;58.48
5651;BME280;40241;52.684;9.758;2023-03-04T13:20:33;101703.94;;;10.71;57.81
5651;BME280;40241;52.684;9.758;2023-03-04T13:25:45;101700.16;;;10.92;57.96
5651;BME280;40241;52.684;9.758;2023-03-04T13:28:25;101694.47;;;10.95;57.52
5651;BME280;40241;52.684;9.758;2023-03-04T13:41:14;101708.81;;;9.92;57.68
5651;BME280;40241;52.684;9.758;2023-03-04T13:43:42;101714.59;;;9.94;58.52
5651;BME280;40241;52.684;9.758;2023-03-04T13:51:25;101704.06;;;9.93;58.72
5651;BME280;40241;52.684;9.758;2023-03-04T13:54:05;101701.59;;;10.04;58.95
5651;BME280;40241;52.684;9.758;2023-03-04T14:04:20;101705.31;;;10.42;57.96
5651;BME280;40241;52.684;9.758;2023-03-04T14:06:48;101707.09;;;10.54;58.54
5651;BME280;40241;52.684;9.758;2023-03-04T14:09:19;101692.34;;;10.67;58.36
5651;BME280;40241;52.684;9.758;2023-03-04T14:11:46;101700.75;;;10.72;57.79
5651;BME280;40241;52.684;9.758;2023-03-04T14:14:15;101698.72;;;10.73;58.04
5651;BME280;40241;52.684;9.758;2023-03-04T14:16:48;101698.44;;;10.71;57.78
5651;BME280;40241;52.684;9.758;2023-03-04T14:19:20;101703.84;;;10.89;56.66
5651;BME280;40241;52.684;9.758;2023-03-04T14:21:47;101699.69;;;10.70;57.14
5651;BME280;40241;52.684;9.758;2023-03-04T14:24:15;101709.88;;;10.45;57.10
5651;BME280;40241;52.684;9.758;2023-03-04T14:26:41;101706.41;;;10.36;57.63
5651;BME280;40241;52.684;9.758;2023-03-04T14:29:24;101707.91;;;10.46;56.63
5651;BME280;40241;52.684;9.758;2023-03-04T14:31:51;101698.00;;;10.39;57.47
5651;BME280;40241;52.684;9.758;2023-03-04T14:34:29;101701.97;;;10.38;57.12
5651;BME280;40241;52.684;9.758;2023-03-04T14:36:57;101703.53;;;10.30;57.54
5651;BME280;40241;52.684;9.758;2023-03-04T14:39:25;101700.50;;;10.28;57.44
5651;BME280;40241;52.684;9.758;2023-03-04T14:41:54;101699.00;;;10.18;57.35
5651;BME280;40241;52.684;9.758;2023-03-04T14:46:50;101683.13;;;10.13;57.33
5651;BME280;40241;52.684;9.758;2023-03-04T14:49:17;101682.38;;;10.13;56.96
5651;BME280;40241;52.684;9.758;2023-03-04T14:51:50;101688.63;;;10.13;56.96
5651;BME280;40241;52.684;9.758;2023-03-04T14:56:56;101692.75;;;10.09;56.82
5651;BME280;40241;52.684;9.758;2023-03-04T14:59:33;101693.53;;;10.00;55.75
5651;BME280;40241;52.684;9.758;2023-03-04T15:04:48;101683.94;;;9.87;56.88
5651;BME280;40241;52.684;9.758;2023-03-04T15:07:20;101675.25;;;9.79;55.84